createdAt,value
2022-09-21T00:01:36.220Z,3.92
2022-09-21T00:07:39.855Z,4.47
2022-09-21T00:13:46.856Z,4.28
2022-09-21T00:19:50.531Z,4.97
2022-09-21T00:25:54.132Z,4.72
2022-09-21T00:31:59.147Z,4.10
2022-09-21T00:38:03.693Z,4.20
2022-09-21T00:44:22.046Z,4.47
2022-09-21T00:50:27.072Z,4.20
2022-09-21T00:56:30.998Z,4.60
2022-09-21T01:02:35.277Z,3.92
2022-09-21T01:08:41.192Z,4.03
2022-09-21T01:14:55.537Z,4.13
2022-09-21T01:21:13.797Z,4.38
2022-09-21T01:27:35.645Z,4.38
2022-09-21T01:33:42.563Z,4.40
2022-09-21T01:39:48.836Z,4.45
2022-09-21T01:45:54.923Z,4.93
2022-09-21T01:52:02.839Z,4.78
2022-09-21T01:58:09.031Z,4.80
2022-09-21T02:04:13.885Z,4.32
2022-09-21T02:10:21.087Z,4.60
2022-09-21T02:16:31.193Z,4.47
2022-09-21T02:22:36.640Z,4.97
2022-09-21T02:28:45.038Z,4.20
2022-09-21T02:34:50.751Z,4.68
2022-09-21T02:40:55.085Z,4.30
2022-09-21T02:47:03.076Z,3.58
2022-09-21T02:53:07.242Z,4.30
2022-09-21T02:59:10.710Z,3.70
2022-09-21T03:05:15.995Z,3.47
2022-09-21T03:11:19.765Z,3.92
2022-09-21T03:17:23.530Z,4.22
2022-09-21T03:23:28.487Z,4.10
2022-09-21T03:29:31.828Z,4.03
2022-09-21T03:35:35.232Z,4.13
2022-09-21T03:41:39.975Z,3.83
2022-09-21T03:47:43.389Z,4.25
2022-09-21T03:53:47.064Z,4.22
2022-09-21T03:59:52.175Z,4.07
2022-09-21T04:05:55.762Z,3.83
2022-09-21T04:11:59.114Z,4.30
2022-09-21T04:18:03.933Z,4.40
2022-09-21T04:24:07.417Z,4.20
2022-09-21T04:30:13.061Z,4.45
2022-09-21T04:36:18.157Z,4.07
2022-09-21T04:42:21.499Z,4.72
2022-09-21T04:48:25.056Z,5.55
2022-09-21T04:54:29.793Z,4.07
2022-09-21T05:00:33.177Z,4.30
2022-09-21T05:06:36.908Z,5.18
2022-09-21T05:12:43.343Z,5.00
2022-09-21T05:18:47.203Z,5.28
2022-09-21T05:24:50.675Z,4.40
2022-09-21T05:31:16.766Z,4.55
2022-09-21T05:37:31.419Z,5.13
2022-09-21T05:43:35.104Z,4.95
2022-09-21T05:49:46.641Z,4.35
2022-09-21T05:55:55.019Z,4.75
2022-09-21T06:02:03.482Z,4.60
2022-09-21T06:08:08.316Z,4.82
2022-09-21T06:14:12.267Z,3.60
2022-09-21T06:20:16.429Z,5.13
2022-09-21T06:26:21.183Z,5.00
2022-09-21T06:32:24.851Z,6.03
2022-09-21T06:38:29.542Z,7.07
2022-09-21T06:44:34.283Z,6.57
2022-09-21T06:50:37.848Z,6.90
2022-09-21T06:56:43.655Z,7.53
2022-09-21T07:02:48.438Z,8.13
2022-09-21T07:15:17.069Z,7.95
2022-09-21T07:21:21.886Z,7.90
2022-09-21T07:27:25.681Z,8.00
2022-09-21T07:33:32.684Z,8.10
2022-09-21T07:39:40.016Z,7.93
2022-09-21T07:45:43.491Z,7.38
2022-09-21T07:51:46.901Z,7.75
2022-09-21T07:58:10.314Z,6.30
2022-09-21T08:04:13.767Z,5.68
2022-09-21T08:10:17.244Z,6.00
2022-09-21T08:16:22.705Z,5.72
2022-09-21T08:22:26.533Z,4.57
2022-09-21T08:28:30.371Z,4.57
2022-09-21T08:34:35.167Z,4.20
2022-09-21T08:40:42.126Z,4.47
2022-09-21T08:46:46.603Z,4.45
2022-09-21T08:52:51.688Z,4.68
2022-09-21T08:58:55.145Z,3.35
2022-09-21T09:05:03.110Z,3.70
2022-09-21T09:11:13.300Z,3.15
2022-09-21T09:17:24.332Z,3.70
2022-09-21T09:23:29.366Z,4.68
2022-09-21T09:29:37.214Z,4.20
2022-09-21T09:35:43.252Z,3.47
2022-09-21T09:41:58.282Z,2.20
2022-09-21T09:48:14.852Z,2.78
2022-09-21T09:54:20.225Z,4.30
2022-09-21T10:00:24.270Z,4.00
2022-09-21T10:06:34.158Z,5.28
2022-09-21T10:12:37.551Z,4.80
2022-09-21T10:18:41.716Z,4.10
2022-09-21T10:24:49.031Z,4.03
2022-09-21T10:30:52.485Z,3.78
2022-09-21T10:36:56.717Z,3.65
2022-09-21T10:43:02.236Z,3.00
2022-09-21T10:49:05.751Z,3.53
2022-09-21T10:55:16.869Z,2.65
2022-09-21T11:01:24.775Z,2.92
2022-09-21T11:07:32.363Z,1.95
2022-09-21T11:13:38.217Z,2.30
2022-09-21T11:19:46.311Z,1.75
2022-09-21T11:25:52.124Z,1.60
2022-09-21T11:32:09.821Z,1.60
2022-09-21T11:38:24.438Z,1.52
2022-09-21T11:44:42.536Z,1.92
2022-09-21T11:57:02.398Z,2.42
2022-09-21T12:03:23.747Z,1.15
2022-09-21T12:09:45.075Z,1.58
2022-09-21T12:15:53.534Z,2.10
2022-09-21T12:21:58.112Z,1.50
2022-09-21T12:28:04.473Z,1.67
2022-09-21T12:34:12.622Z,2.05
2022-09-21T12:40:23.238Z,2.30
2022-09-21T12:46:29.359Z,2.33
2022-09-21T12:52:35.777Z,2.35
2022-09-21T12:58:50.807Z,1.80
2022-09-21T13:05:02.125Z,1.90
2022-09-21T13:11:08.802Z,2.13
2022-09-21T13:17:21.194Z,2.33
2022-09-21T13:23:26.787Z,2.70
2022-09-21T13:29:33.003Z,2.83
2022-09-21T13:35:54.556Z,2.25
2022-09-21T13:42:03.331Z,1.73
